sensor_id;sensor_type;location;lat;lon;timestamp;P1;durP1;ratioP1;P2;durP2;ratioP2
63807;SDS011;49961;43.970;22.868;2022-12-19T00:01:04;25.73;;;19.33;;
63807;SDS011;49961;43.970;22.868;2022-12-19T00:02:15;25.17;;;18.40;;
63807;SDS011;49961;43.970;22.868;2022-12-19T00:03:15;29.07;;;20.43;;
63807;SDS011;49961;43.970;22.868;2022-12-19T00:04:16;26.83;;;19.07;;
63807;SDS011;49961;43.970;22.868;2022-12-19T00:05:18;26.95;;;18.85;;
63807;SDS011;49961;43.970;22.868;2022-12-19T00:06:21;27.70;;;19.73;;
63807;SDS011;49961;43.970;22.868;2022-12-19T00:07:22;27.00;;;19.53;;
63807;SDS011;49961;43.970;22.868;2022-12-19T00:08:22;26.07;;;19.30;;
63807;SDS011;49961;43.970;22.868;2022-12-19T00:09:23;26.83;;;19.03;;
63807;SDS011;49961;43.970;22.868;2022-12-19T00:10:24;25.98;;;19.42;;
63807;SDS011;49961;43.970;22.868;2022-12-19T00:11:25;27.53;;;19.23;;
63807;SDS011;49961;43.970;22.868;2022-12-19T00:12:26;26.05;;;19.42;;
63807;SDS011;49961;43.970;22.868;2022-12-19T00:13:28;25.80;;;19.10;;
63807;SDS011;49961;43.970;22.868;2022-12-19T00:14:29;25.67;;;19.00;;
63807;SDS011;49961;43.970;22.868;2022-12-19T00:15:32;28.10;;;19.13;;
63807;SDS011;49961;43.970;22.868;2022-12-19T00:16:33;25.67;;;18.73;;
63807;SDS011;49961;43.970;22.868;2022-12-19T00:17:33;26.53;;;18.30;;
63807;SDS011;49961;43.970;22.868;2022-12-19T00:18:34;28.00;;;20.27;;
63807;SDS011;49961;43.970;22.868;2022-12-19T00:19:35;26.65;;;19.42;;
63807;SDS011;49961;43.970;22.868;2022-12-19T00:20:35;25.63;;;18.30;;
63807;SDS011;49961;43.970;22.868;2022-12-19T00:21:36;25.40;;;18.37;;
63807;SDS011;49961;43.970;22.868;2022-12-19T00:22:37;24.70;;;18.00;;
63807;SDS011;49961;43.970;22.868;2022-12-19T00:23:38;27.50;;;19.10;;
63807;SDS011;49961;43.970;22.868;2022-12-19T00:24:39;26.10;;;18.73;;
63807;SDS011;49961;43.970;22.868;2022-12-19T00:25:39;24.93;;;18.67;;
63807;SDS011;49961;43.970;22.868;2022-12-19T00:26:39;27.23;;;19.10;;
63807;SDS011;49961;43.970;22.868;2022-12-19T00:27:40;24.70;;;18.07;;
63807;SDS011;49961;43.970;22.868;2022-12-19T00:28:41;23.27;;;17.60;;
63807;SDS011;49961;43.970;22.868;2022-12-19T00:29:43;27.85;;;19.00;;
63807;SDS011;49961;43.970;22.868;2022-12-19T00:30:44;25.50;;;18.40;;
63807;SDS011;49961;43.970;22.868;2022-12-19T00:31:45;24.90;;;17.80;;
63807;SDS011;49961;43.970;22.868;2022-12-19T00:32:45;26.67;;;18.43;;
63807;SDS011;49961;43.970;22.868;2022-12-19T00:33:46;25.42;;;18.45;;
63807;SDS011;49961;43.970;22.868;2022-12-19T00:34:48;26.17;;;18.73;;
63807;SDS011;49961;43.970;22.868;2022-12-19T00:35:48;25.03;;;18.07;;
63807;SDS011;49961;43.970;22.868;2022-12-19T00:36:48;23.77;;;17.40;;
63807;SDS011;49961;43.970;22.868;2022-12-19T00:37:49;25.47;;;18.80;;
63807;SDS011;49961;43.970;22.868;2022-12-19T00:38:50;26.10;;;18.57;;
63807;SDS011;49961;43.970;22.868;2022-12-19T00:39:51;26.02;;;18.45;;
63807;SDS011;49961;43.970;22.868;2022-12-19T00:40:52;25.57;;;19.07;;
63807;SDS011;49961;43.970;22.868;2022-12-19T00:41:52;28.00;;;19.20;;
63807;SDS011;49961;43.970;22.868;2022-12-19T00:42:53;25.73;;;18.27;;
63807;SDS011;49961;43.970;22.868;2022-12-19T00:43:57;25.90;;;18.70;;
63807;SDS011;49961;43.970;22.868;2022-12-19T00:45:05;26.67;;;18.50;;
63807;SDS011;49961;43.970;22.868;2022-12-19T00:46:09;26.80;;;18.73;;
63807;SDS011;49961;43.970;22.868;2022-12-19T00:47:12;27.38;;;18.92;;
63807;SDS011;49961;43.970;22.868;2022-12-19T00:48:15;26.40;;;18.60;;
63807;SDS011;49961;43.970;22.868;2022-12-19T00:49:16;26.60;;;19.00;;
63807;SDS011;49961;43.970;22.868;2022-12-19T00:50:16;26.90;;;19.73;;
63807;SDS011;49961;43.970;22.868;2022-12-19T00:51:18;24.77;;;18.57;;
63807;SDS011;49961;43.970;22.868;2022-12-19T00:52:20;26.65;;;19.00;;
63807;SDS011;49961;43.970;22.868;2022-12-19T00:53:20;27.97;;;19.27;;
63807;SDS011;49961;43.970;22.868;2022-12-19T00:54:20;24.80;;;18.63;;
63807;SDS011;49961;43.970;22.868;2022-12-19T00:55:21;24.77;;;18.07;;
63807;SDS011;49961;43.970;22.868;2022-12-19T00:56:23;27.57;;;19.23;;
63807;SDS011;49961;43.970;22.868;2022-12-19T00:57:28;26.60;;;18.50;;
63807;SDS011;49961;43.970;22.868;2022-12-19T00:58:28;26.17;;;18.73;;
63807;SDS011;49961;43.970;22.868;2022-12-19T00:59:28;28.17;;;19.60;;
63807;SDS011;49961;43.970;22.868;2022-12-19T01:00:29;26.77;;;17.90;;
63807;SDS011;49961;43.970;22.868;2022-12-19T01:01:30;23.67;;;17.60;;
63807;SDS011;49961;43.970;22.868;2022-12-19T01:02:33;26.00;;;18.27;;
63807;SDS011;49961;43.970;22.868;2022-12-19T01:03:33;26.87;;;19.27;;
63807;SDS011;49961;43.970;22.868;2022-12-19T01:04:34;27.83;;;19.43;;
63807;SDS011;49961;43.970;22.868;2022-12-19T01:05:35;26.30;;;18.90;;
63807;SDS011;49961;43.970;22.868;2022-12-19T01:06:35;26.67;;;18.37;;
63807;SDS011;49961;43.970;22.868;2022-12-19T01:07:36;26.80;;;18.40;;
63807;SDS011;49961;43.970;22.868;2022-12-19T01:08:36;26.03;;;18.47;;
63807;SDS011;49961;43.970;22.868;2022-12-19T01:09:37;23.07;;;17.00;;
63807;SDS011;49961;43.970;22.868;2022-12-19T01:10:43;25.00;;;18.73;;
63807;SDS011;49961;43.970;22.868;2022-12-19T01:11:45;24.55;;;17.70;;
63807;SDS011;49961;43.970;22.868;2022-12-19T01:13:04;27.35;;;18.48;;
63807;SDS011;49961;43.970;22.868;2022-12-19T01:14:04;25.00;;;18.47;;
63807;SDS011;49961;43.970;22.868;2022-12-19T01:15:05;24.43;;;17.47;;
63807;SDS011;49961;43.970;22.868;2022-12-19T01:16:07;27.90;;;19.47;;
63807;SDS011;49961;43.970;22.868;2022-12-19T01:17:11;26.30;;;18.58;;
63807;SDS011;49961;43.970;22.868;2022-12-19T01:18:11;24.37;;;18.40;;
63807;SDS011;49961;43.970;22.868;2022-12-19T01:19:12;25.80;;;18.77;;
63807;SDS011;49961;43.970;22.868;2022-12-19T01:20:14;24.97;;;18.67;;
63807;SDS011;49961;43.970;22.868;2022-12-19T01:21:16;24.23;;;18.05;;
63807;SDS011;49961;43.970;22.868;2022-12-19T01:22:16;25.17;;;18.30;;
63807;SDS011;49961;43.970;22.868;2022-12-19T01:23:16;28.33;;;19.13;;
63807;SDS011;49961;43.970;22.868;2022-12-19T01:24:17;25.80;;;19.10;;
63807;SDS011;49961;43.970;22.868;2022-12-19T01:25:17;27.57;;;19.07;;
63807;SDS011;49961;43.970;22.868;2022-12-19T01:26:18;28.50;;;19.57;;
63807;SDS011;49961;43.970;22.868;2022-12-19T01:27:18;26.17;;;19.57;;
63807;SDS011;49961;43.970;22.868;2022-12-19T01:28:19;27.63;;;19.40;;
63807;SDS011;49961;43.970;22.868;2022-12-19T01:29:19;28.37;;;19.73;;
63807;SDS011;49961;43.970;22.868;2022-12-19T01:30:20;27.87;;;20.27;;
63807;SDS011;49961;43.970;22.868;2022-12-19T01:31:21;29.03;;;21.00;;
63807;SDS011;49961;43.970;22.868;2022-12-19T01:32:21;27.10;;;20.52;;
63807;SDS011;49961;43.970;22.868;2022-12-19T01:33:22;31.40;;;19.60;;
63807;SDS011;49961;43.970;22.868;2022-12-19T01:34:22;28.10;;;19.97;;
63807;SDS011;49961;43.970;22.868;2022-12-19T01:35:23;28.53;;;19.63;;
63807;SDS011;49961;43.970;22.868;2022-12-19T01:36:24;26.67;;;19.40;;
63807;SDS011;49961;43.970;22.868;2022-12-19T01:37:24;26.37;;;19.47;;
63807;SDS011;49961;43.970;22.868;2022-12-19T01:38:25;26.93;;;19.57;;
63807;SDS011;49961;43.970;22.868;2022-12-19T01:39:25;28.90;;;19.80;;
63807;SDS011;49961;43.970;22.868;2022-12-19T01:40:26;26.07;;;19.37;;
63807;SDS011;49961;43.970;22.868;2022-12-19T01:41:26;28.33;;;19.73;;
63807;SDS011;49961;43.970;22.868;2022-12-19T01:42:32;28.40;;;20.20;;
63807;SDS011;49961;43.970;22.868;2022-12-19T01:44:57;26.45;;;19.02;;
63807;SDS011;49961;43.970;22.868;2022-12-19T01:46:09;25.40;;;19.10;;
63807;SDS011;49961;43.970;22.868;2022-12-19T01:47:13;27.58;;;19.45;;
63807;SDS011;49961;43.970;22.868;2022-12-19T01:48:28;27.37;;;19.60;;
63807;SDS011;49961;43.970;22.868;2022-12-19T01:49:34;27.25;;;19.42;;
63807;SDS011;49961;43.970;22.868;2022-12-19T01:50:37;28.65;;;19.85;;
63807;SDS011;49961;43.970;22.868;2022-12-19T01:51:47;25.67;;;19.58;;
63807;SDS011;49961;43.970;22.868;2022-12-19T01:52:51;28.02;;;19.13;;
63807;SDS011;49961;43.970;22.868;2022-12-19T01:53:56;29.27;;;20.00;;
63807;SDS011;49961;43.970;22.868;2022-12-19T01:54:58;27.77;;;20.08;;
63807;SDS011;49961;43.970;22.868;2022-12-19T01:56:00;26.83;;;20.63;;
63807;SDS011;49961;43.970;22.868;2022-12-19T01:57:05;28.77;;;19.95;;
63807;SDS011;49961;43.970;22.868;2022-12-19T01:58:10;28.30;;;19.58;;
63807;SDS011;49961;43.970;22.868;2022-12-19T01:59:13;28.73;;;19.33;;
63807;SDS011;49961;43.970;22.868;2022-12-19T02:00:17;29.80;;;20.13;;
63807;SDS011;49961;43.970;22.868;2022-12-19T02:01:18;28.17;;;20.07;;
63807;SDS011;49961;43.970;22.868;2022-12-19T02:02:28;27.43;;;19.70;;
63807;SDS011;49961;43.970;22.868;2022-12-19T02:03:33;28.08;;;19.25;;
63807;SDS011;49961;43.970;22.868;2022-12-19T02:04:37;26.55;;;19.08;;
63807;SDS011;49961;43.970;22.868;2022-12-19T02:05:39;27.02;;;18.67;;
63807;SDS011;49961;43.970;22.868;2022-12-19T02:06:40;26.53;;;19.70;;
63807;SDS011;49961;43.970;22.868;2022-12-19T02:07:42;27.38;;;19.13;;
63807;SDS011;49961;43.970;22.868;2022-12-19T02:08:43;26.55;;;18.58;;
63807;SDS011;49961;43.970;22.868;2022-12-19T02:09:46;25.90;;;19.17;;
63807;SDS011;49961;43.970;22.868;2022-12-19T02:10:50;27.05;;;18.48;;
63807;SDS011;49961;43.970;22.868;2022-12-19T02:11:50;27.77;;;19.40;;
63807;SDS011;49961;43.970;22.868;2022-12-19T02:12:52;27.80;;;18.80;;
63807;SDS011;49961;43.970;22.868;2022-12-19T02:13:52;25.93;;;18.63;;
63807;SDS011;49961;43.970;22.868;2022-12-19T02:14:53;28.83;;;19.53;;
63807;SDS011;49961;43.970;22.868;2022-12-19T02:15:59;26.02;;;18.63;;
63807;SDS011;49961;43.970;22.868;2022-12-19T02:17:38;26.35;;;18.92;;
63807;SDS011;49961;43.970;22.868;2022-12-19T02:23:27;26.33;;;18.83;;
63807;SDS011;49961;43.970;22.868;2022-12-19T02:24:50;26.95;;;19.20;;
63807;SDS011;49961;43.970;22.868;2022-12-19T02:31:33;26.08;;;17.58;;
63807;SDS011;49961;43.970;22.868;2022-12-19T02:32:46;24.98;;;18.10;;
63807;SDS011;49961;43.970;22.868;2022-12-19T02:33:53;28.55;;;18.70;;
63807;SDS011;49961;43.970;22.868;2022-12-19T02:36:24;28.55;;;18.33;;
63807;SDS011;49961;43.970;22.868;2022-12-19T02:37:31;25.10;;;18.65;;
63807;SDS011;49961;43.970;22.868;2022-12-19T02:38:37;27.15;;;18.67;;
63807;SDS011;49961;43.970;22.868;2022-12-19T02:39:50;27.42;;;18.85;;
63807;SDS011;49961;43.970;22.868;2022-12-19T02:41:08;26.45;;;18.95;;
63807;SDS011;49961;43.970;22.868;2022-12-19T02:42:27;26.02;;;18.00;;
63807;SDS011;49961;43.970;22.868;2022-12-19T02:43:31;26.40;;;18.27;;
63807;SDS011;49961;43.970;22.868;2022-12-19T02:44:39;26.17;;;18.60;;
63807;SDS011;49961;43.970;22.868;2022-12-19T02:45:44;25.33;;;18.27;;
63807;SDS011;49961;43.970;22.868;2022-12-19T02:46:47;25.92;;;18.10;;
63807;SDS011;49961;43.970;22.868;2022-12-19T02:47:49;25.83;;;18.42;;
63807;SDS011;49961;43.970;22.868;2022-12-19T02:48:50;29.30;;;20.27;;
63807;SDS011;49961;43.970;22.868;2022-12-19T02:49:52;25.40;;;18.15;;
63807;SDS011;49961;43.970;22.868;2022-12-19T02:50:52;26.67;;;19.17;;
63807;SDS011;49961;43.970;22.868;2022-12-19T02:51:52;24.57;;;18.33;;
63807;SDS011;49961;43.970;22.868;2022-12-19T02:52:53;24.27;;;17.67;;
63807;SDS011;49961;43.970;22.868;2022-12-19T02:53:53;31.90;;;19.20;;
63807;SDS011;49961;43.970;22.868;2022-12-19T02:54:55;26.10;;;18.33;;
63807;SDS011;49961;43.970;22.868;2022-12-19T03:00:07;28.17;;;18.80;;
63807;SDS011;49961;43.970;22.868;2022-12-19T03:02:30;27.13;;;18.70;;
63807;SDS011;49961;43.970;22.868;2022-12-19T03:03:46;28.20;;;18.45;;
63807;SDS011;49961;43.970;22.868;2022-12-19T03:05:24;27.38;;;18.95;;
63807;SDS011;49961;43.970;22.868;2022-12-19T03:06:34;28.88;;;19.05;;
63807;SDS011;49961;43.970;22.868;2022-12-19T03:07:46;28.05;;;18.30;;
63807;SDS011;49961;43.970;22.868;2022-12-19T03:11:07;25.90;;;18.07;;
63807;SDS011;49961;43.970;22.868;2022-12-19T03:12:13;30.60;;;19.83;;
63807;SDS011;49961;43.970;22.868;2022-12-19T03:14:32;28.92;;;18.25;;
63807;SDS011;49961;43.970;22.868;2022-12-19T03:15:34;27.10;;;18.35;;
63807;SDS011;49961;43.970;22.868;2022-12-19T03:16:37;26.30;;;19.02;;
63807;SDS011;49961;43.970;22.868;2022-12-19T03:17:37;26.97;;;18.83;;
63807;SDS011;49961;43.970;22.868;2022-12-19T03:18:39;26.50;;;18.92;;
63807;SDS011;49961;43.970;22.868;2022-12-19T03:19:39;25.73;;;18.83;;
63807;SDS011;49961;43.970;22.868;2022-12-19T03:21:49;25.52;;;17.85;;
63807;SDS011;49961;43.970;22.868;2022-12-19T03:22:51;25.50;;;18.20;;
63807;SDS011;49961;43.970;22.868;2022-12-19T03:23:52;26.17;;;17.77;;
63807;SDS011;49961;43.970;22.868;2022-12-19T03:24:54;25.35;;;17.90;;
63807;SDS011;49961;43.970;22.868;2022-12-19T03:25:56;26.43;;;18.13;;
63807;SDS011;49961;43.970;22.868;2022-12-19T03:27:07;24.48;;;18.17;;
63807;SDS011;49961;43.970;22.868;2022-12-19T03:28:25;27.05;;;19.23;;
63807;SDS011;49961;43.970;22.868;2022-12-19T03:29:51;28.38;;;18.70;;
63807;SDS011;49961;43.970;22.868;2022-12-19T03:30:56;26.95;;;17.90;;
63807;SDS011;49961;43.970;22.868;2022-12-19T03:31:59;28.35;;;19.13;;
63807;SDS011;49961;43.970;22.868;2022-12-19T03:33:04;24.27;;;17.88;;
63807;SDS011;49961;43.970;22.868;2022-12-19T03:34:14;26.95;;;18.67;;
63807;SDS011;49961;43.970;22.868;2022-12-19T03:35:19;25.23;;;19.02;;
63807;SDS011;49961;43.970;22.868;2022-12-19T03:36:26;27.80;;;18.77;;
63807;SDS011;49961;43.970;22.868;2022-12-19T03:37:32;26.23;;;18.83;;
63807;SDS011;49961;43.970;22.868;2022-12-19T03:38:36;26.33;;;18.65;;
63807;SDS011;49961;43.970;22.868;2022-12-19T03:39:39;24.40;;;17.83;;
63807;SDS011;49961;43.970;22.868;2022-12-19T03:40:42;25.63;;;18.17;;
63807;SDS011;49961;43.970;22.868;2022-12-19T03:41:46;25.25;;;17.95;;
63807;SDS011;49961;43.970;22.868;2022-12-19T03:43:07;26.05;;;17.73;;
63807;SDS011;49961;43.970;22.868;2022-12-19T03:44:10;25.10;;;18.42;;
63807;SDS011;49961;43.970;22.868;2022-12-19T03:45:15;26.98;;;18.50;;
63807;SDS011;49961;43.970;22.868;2022-12-19T03:46:22;27.13;;;17.92;;
63807;SDS011;49961;43.970;22.868;2022-12-19T03:47:38;26.08;;;18.02;;
63807;SDS011;49961;43.970;22.868;2022-12-19T03:48:47;25.45;;;18.15;;
63807;SDS011;49961;43.970;22.868;2022-12-19T03:49:50;27.35;;;18.83;;
63807;SDS011;49961;43.970;22.868;2022-12-19T03:51:00;29.33;;;19.40;;
63807;SDS011;49961;43.970;22.868;2022-12-19T03:55:11;35.58;;;20.55;;
63807;SDS011;49961;43.970;22.868;2022-12-19T03:57:42;30.20;;;19.48;;
63807;SDS011;49961;43.970;22.868;2022-12-19T03:58:50;29.05;;;19.40;;
63807;SDS011;49961;43.970;22.868;2022-12-19T04:00:07;30.38;;;19.85;;
63807;SDS011;49961;43.970;22.868;2022-12-19T04:01:11;29.65;;;19.65;;
63807;SDS011;49961;43.970;22.868;2022-12-19T04:02:13;28.87;;;20.00;;
63807;SDS011;49961;43.970;22.868;2022-12-19T04:03:15;30.50;;;20.42;;
63807;SDS011;49961;43.970;22.868;2022-12-19T04:04:18;27.13;;;19.33;;
63807;SDS011;49961;43.970;22.868;2022-12-19T04:05:21;28.00;;;21.92;;
63807;SDS011;49961;43.970;22.868;2022-12-19T04:06:25;27.48;;;19.75;;
63807;SDS011;49961;43.970;22.868;2022-12-19T04:07:29;27.40;;;20.52;;
63807;SDS011;49961;43.970;22.868;2022-12-19T04:08:31;29.73;;;20.52;;
63807;SDS011;49961;43.970;22.868;2022-12-19T04:09:33;28.95;;;20.98;;
63807;SDS011;49961;43.970;22.868;2022-12-19T04:11:12;30.05;;;21.20;;
63807;SDS011;49961;43.970;22.868;2022-12-19T04:12:15;29.50;;;20.02;;
63807;SDS011;49961;43.970;22.868;2022-12-19T04:13:20;28.75;;;20.05;;
63807;SDS011;49961;43.970;22.868;2022-12-19T04:14:36;28.00;;;20.45;;
63807;SDS011;49961;43.970;22.868;2022-12-19T04:15:55;31.40;;;21.77;;
63807;SDS011;49961;43.970;22.868;2022-12-19T04:18:34;29.55;;;20.23;;
63807;SDS011;49961;43.970;22.868;2022-12-19T04:19:42;31.73;;;20.70;;
63807;SDS011;49961;43.970;22.868;2022-12-19T04:20:54;30.40;;;21.45;;
63807;SDS011;49961;43.970;22.868;2022-12-19T04:22:11;29.58;;;20.40;;
63807;SDS011;49961;43.970;22.868;2022-12-19T04:23:17;28.25;;;20.80;;
63807;SDS011;49961;43.970;22.868;2022-12-19T04:24:27;29.50;;;20.67;;
63807;SDS011;49961;43.970;22.868;2022-12-19T04:25:37;32.28;;;21.25;;
63807;SDS011;49961;43.970;22.868;2022-12-19T04:26:41;29.73;;;21.20;;
63807;SDS011;49961;43.970;22.868;2022-12-19T04:27:50;27.02;;;19.45;;
63807;SDS011;49961;43.970;22.868;2022-12-19T04:28:58;27.67;;;20.13;;
63807;SDS011;49961;43.970;22.868;2022-12-19T04:30:02;27.33;;;19.95;;
63807;SDS011;49961;43.970;22.868;2022-12-19T04:31:07;27.75;;;20.23;;
63807;SDS011;49961;43.970;22.868;2022-12-19T04:32:12;31.92;;;21.15;;
63807;SDS011;49961;43.970;22.868;2022-12-19T04:33:14;31.20;;;20.83;;
63807;SDS011;49961;43.970;22.868;2022-12-19T04:34:16;30.23;;;21.77;;
63807;SDS011;49961;43.970;22.868;2022-12-19T04:35:19;30.60;;;20.45;;
63807;SDS011;49961;43.970;22.868;2022-12-19T04:36:20;32.03;;;21.00;;
63807;SDS011;49961;43.970;22.868;2022-12-19T04:37:21;29.53;;;21.23;;
63807;SDS011;49961;43.970;22.868;2022-12-19T04:38:21;28.97;;;21.40;;
63807;SDS011;49961;43.970;22.868;2022-12-19T04:39:22;30.60;;;20.57;;
63807;SDS011;49961;43.970;22.868;2022-12-19T04:40:22;34.43;;;21.10;;
63807;SDS011;49961;43.970;22.868;2022-12-19T04:41:23;30.97;;;21.23;;
63807;SDS011;49961;43.970;22.868;2022-12-19T04:42:23;30.50;;;21.93;;
63807;SDS011;49961;43.970;22.868;2022-12-19T04:43:24;31.97;;;21.50;;
63807;SDS011;49961;43.970;22.868;2022-12-19T04:44:24;28.97;;;21.37;;
63807;SDS011;49961;43.970;22.868;2022-12-19T04:45:25;29.40;;;21.13;;
63807;SDS011;49961;43.970;22.868;2022-12-19T04:46:25;29.70;;;20.73;;
63807;SDS011;49961;43.970;22.868;2022-12-19T04:47:25;30.60;;;21.30;;
63807;SDS011;49961;43.970;22.868;2022-12-19T04:48:26;29.47;;;20.67;;
63807;SDS011;49961;43.970;22.868;2022-12-19T04:49:27;31.17;;;21.80;;
63807;SDS011;49961;43.970;22.868;2022-12-19T04:50:27;31.97;;;21.93;;
63807;SDS011;49961;43.970;22.868;2022-12-19T04:51:28;33.10;;;21.90;;
63807;SDS011;49961;43.970;22.868;2022-12-19T04:52:28;30.63;;;21.50;;
63807;SDS011;49961;43.970;22.868;2022-12-19T04:53:28;30.77;;;20.97;;
63807;SDS011;49961;43.970;22.868;2022-12-19T04:54:29;32.50;;;21.73;;
63807;SDS011;49961;43.970;22.868;2022-12-19T04:55:31;31.15;;;21.98;;
63807;SDS011;49961;43.970;22.868;2022-12-19T04:56:32;31.60;;;21.27;;
63807;SDS011;49961;43.970;22.868;2022-12-19T04:57:32;29.87;;;21.33;;
63807;SDS011;49961;43.970;22.868;2022-12-19T04:58:33;33.37;;;21.10;;
63807;SDS011;49961;43.970;22.868;2022-12-19T04:59:33;30.77;;;21.33;;
63807;SDS011;49961;43.970;22.868;2022-12-19T05:00:34;31.67;;;20.73;;
63807;SDS011;49961;43.970;22.868;2022-12-19T05:01:34;28.27;;;20.20;;
63807;SDS011;49961;43.970;22.868;2022-12-19T05:02:36;27.23;;;20.10;;
63807;SDS011;49961;43.970;22.868;2022-12-19T05:03:37;27.23;;;20.08;;
63807;SDS011;49961;43.970;22.868;2022-12-19T05:04:37;30.63;;;19.87;;
63807;SDS011;49961;43.970;22.868;2022-12-19T05:05:38;30.63;;;19.67;;
63807;SDS011;49961;43.970;22.868;2022-12-19T05:06:38;28.63;;;19.73;;
63807;SDS011;49961;43.970;22.868;2022-12-19T05:07:39;29.23;;;20.77;;
63807;SDS011;49961;43.970;22.868;2022-12-19T05:08:40;29.80;;;20.27;;
63807;SDS011;49961;43.970;22.868;2022-12-19T05:09:42;30.48;;;20.60;;
63807;SDS011;49961;43.970;22.868;2022-12-19T05:10:42;31.60;;;20.33;;
63807;SDS011;49961;43.970;22.868;2022-12-19T05:11:43;33.70;;;20.60;;
63807;SDS011;49961;43.970;22.868;2022-12-19T05:12:43;29.13;;;20.03;;
63807;SDS011;49961;43.970;22.868;2022-12-19T05:13:43;33.27;;;21.50;;
63807;SDS011;49961;43.970;22.868;2022-12-19T05:14:44;30.33;;;20.93;;
63807;SDS011;49961;43.970;22.868;2022-12-19T05:15:54;30.10;;;20.93;;
63807;SDS011;49961;43.970;22.868;2022-12-19T05:16:57;28.23;;;20.40;;
63807;SDS011;49961;43.970;22.868;2022-12-19T05:17:58;28.87;;;21.20;;
63807;SDS011;49961;43.970;22.868;2022-12-19T05:18:59;29.17;;;20.10;;
63807;SDS011;49961;43.970;22.868;2022-12-19T05:20:00;33.58;;;21.08;;
63807;SDS011;49961;43.970;22.868;2022-12-19T05:21:00;28.70;;;20.67;;
63807;SDS011;49961;43.970;22.868;2022-12-19T05:22:01;32.30;;;21.47;;
63807;SDS011;49961;43.970;22.868;2022-12-19T05:23:02;33.10;;;20.80;;
63807;SDS011;49961;43.970;22.868;2022-12-19T05:24:02;33.87;;;22.00;;
63807;SDS011;49961;43.970;22.868;2022-12-19T05:25:03;34.67;;;20.63;;
63807;SDS011;49961;43.970;22.868;2022-12-19T05:26:04;32.03;;;22.60;;
63807;SDS011;49961;43.970;22.868;2022-12-19T05:27:05;33.70;;;21.33;;
63807;SDS011;49961;43.970;22.868;2022-12-19T05:28:06;32.60;;;21.87;;
63807;SDS011;49961;43.970;22.868;2022-12-19T05:29:07;34.23;;;22.87;;
63807;SDS011;49961;43.970;22.868;2022-12-19T05:30:07;31.23;;;22.73;;
63807;SDS011;49961;43.970;22.868;2022-12-19T05:31:11;32.78;;;22.38;;
63807;SDS011;49961;43.970;22.868;2022-12-19T05:32:13;36.92;;;23.67;;
63807;SDS011;49961;43.970;22.868;2022-12-19T05:33:14;33.27;;;21.90;;
63807;SDS011;49961;43.970;22.868;2022-12-19T05:34:14;31.33;;;21.83;;
63807;SDS011;49961;43.970;22.868;2022-12-19T05:35:15;32.87;;;23.63;;
63807;SDS011;49961;43.970;22.868;2022-12-19T05:36:16;31.90;;;22.17;;
63807;SDS011;49961;43.970;22.868;2022-12-19T05:37:17;35.10;;;22.73;;
63807;SDS011;49961;43.970;22.868;2022-12-19T05:38:17;33.67;;;22.60;;
63807;SDS011;49961;43.970;22.868;2022-12-19T05:39:18;32.33;;;21.27;;
63807;SDS011;49961;43.970;22.868;2022-12-19T05:40:18;30.17;;;20.80;;
63807;SDS011;49961;43.970;22.868;2022-12-19T05:41:19;29.57;;;21.93;;
63807;SDS011;49961;43.970;22.868;2022-12-19T05:42:20;32.95;;;20.98;;
63807;SDS011;49961;43.970;22.868;2022-12-19T05:43:20;32.97;;;21.60;;
63807;SDS011;49961;43.970;22.868;2022-12-19T05:44:21;31.33;;;22.75;;
63807;SDS011;49961;43.970;22.868;2022-12-19T05:45:21;34.20;;;22.07;;
63807;SDS011;49961;43.970;22.868;2022-12-19T05:46:22;34.33;;;22.33;;
63807;SDS011;49961;43.970;22.868;2022-12-19T05:47:23;30.95;;;22.20;;
63807;SDS011;49961;43.970;22.868;2022-12-19T05:48:24;35.93;;;23.90;;
63807;SDS011;49961;43.970;22.868;2022-12-19T05:49:24;32.87;;;22.60;;
63807;SDS011;49961;43.970;22.868;2022-12-19T05:50:25;33.53;;;22.53;;
63807;SDS011;49961;43.970;22.868;2022-12-19T05:51:25;31.13;;;22.00;;
63807;SDS011;49961;43.970;22.868;2022-12-19T05:52:26;34.17;;;22.67;;
63807;SDS011;49961;43.970;22.868;2022-12-19T05:53:26;33.13;;;23.03;;
63807;SDS011;49961;43.970;22.868;2022-12-19T05:54:27;33.90;;;23.43;;
63807;SDS011;49961;43.970;22.868;2022-12-19T05:55:28;32.27;;;22.97;;
63807;SDS011;49961;43.970;22.868;2022-12-19T05:56:28;39.77;;;24.37;;
63807;SDS011;49961;43.970;22.868;2022-12-19T05:57:28;34.27;;;24.63;;
63807;SDS011;49961;43.970;22.868;2022-12-19T05:58:29;36.47;;;24.90;;
63807;SDS011;49961;43.970;22.868;2022-12-19T05:59:30;36.33;;;25.08;;
63807;SDS011;49961;43.970;22.868;2022-12-19T06:00:30;37.83;;;25.47;;
63807;SDS011;49961;43.970;22.868;2022-12-19T06:01:31;38.50;;;26.80;;
63807;SDS011;49961;43.970;22.868;2022-12-19T06:02:31;35.90;;;25.30;;
63807;SDS011;49961;43.970;22.868;2022-12-19T06:03:32;39.17;;;26.83;;
63807;SDS011;49961;43.970;22.868;2022-12-19T06:04:36;38.23;;;27.97;;
63807;SDS011;49961;43.970;22.868;2022-12-19T06:05:36;43.33;;;27.90;;
63807;SDS011;49961;43.970;22.868;2022-12-19T06:06:37;42.22;;;27.77;;
63807;SDS011;49961;43.970;22.868;2022-12-19T06:07:38;39.97;;;26.37;;
63807;SDS011;49961;43.970;22.868;2022-12-19T06:08:38;40.87;;;27.77;;
63807;SDS011;49961;43.970;22.868;2022-12-19T06:09:39;43.80;;;28.10;;
63807;SDS011;49961;43.970;22.868;2022-12-19T06:10:39;36.90;;;26.40;;
63807;SDS011;49961;43.970;22.868;2022-12-19T06:11:40;35.53;;;25.87;;
63807;SDS011;49961;43.970;22.868;2022-12-19T06:12:40;35.67;;;25.00;;
63807;SDS011;49961;43.970;22.868;2022-12-19T06:13:40;34.67;;;23.63;;
63807;SDS011;49961;43.970;22.868;2022-12-19T06:14:41;35.53;;;24.20;;
63807;SDS011;49961;43.970;22.868;2022-12-19T06:15:44;34.63;;;22.87;;
63807;SDS011;49961;43.970;22.868;2022-12-19T06:16:45;33.65;;;24.05;;
63807;SDS011;49961;43.970;22.868;2022-12-19T06:17:45;36.17;;;23.83;;
63807;SDS011;49961;43.970;22.868;2022-12-19T06:18:46;34.77;;;23.57;;
63807;SDS011;49961;43.970;22.868;2022-12-19T06:19:46;41.90;;;23.27;;
63807;SDS011;49961;43.970;22.868;2022-12-19T06:20:54;33.60;;;23.00;;
63807;SDS011;49961;43.970;22.868;2022-12-19T06:22:05;35.28;;;23.30;;
63807;SDS011;49961;43.970;22.868;2022-12-19T06:23:05;32.83;;;23.30;;
63807;SDS011;49961;43.970;22.868;2022-12-19T06:24:06;33.17;;;23.53;;
63807;SDS011;49961;43.970;22.868;2022-12-19T06:25:06;33.93;;;23.40;;
63807;SDS011;49961;43.970;22.868;2022-12-19T06:26:09;35.92;;;24.08;;
63807;SDS011;49961;43.970;22.868;2022-12-19T06:27:11;35.83;;;24.58;;
63807;SDS011;49961;43.970;22.868;2022-12-19T06:28:11;38.13;;;25.17;;
63807;SDS011;49961;43.970;22.868;2022-12-19T06:29:12;35.87;;;23.90;;
63807;SDS011;49961;43.970;22.868;2022-12-19T06:30:12;40.43;;;25.97;;
63807;SDS011;49961;43.970;22.868;2022-12-19T06:31:14;36.70;;;24.67;;
63807;SDS011;49961;43.970;22.868;2022-12-19T06:32:15;37.72;;;25.73;;
63807;SDS011;49961;43.970;22.868;2022-12-19T06:33:15;34.63;;;25.10;;
63807;SDS011;49961;43.970;22.868;2022-12-19T06:34:16;41.33;;;26.53;;